Villach, Austria
Current Conditions -  °F | °C
As of 4:50 AM on Saturday 25 Oct 2014 (Local Time) from LOWK Reporting Station
Broken Clouds Broken Clouds  
Wind Chill: 44°   Ceiling: 6200
Heat Index: 46°   Visibility: 6mi
Dew Point: 41°   Wind: 5mph
Humidity: 81%   Direction: 90°E
Pressure: 30.15"   Gusts: NA
Location:  46.62°N, 13.85°E
Report Text: LOWK 250250Z 09004KT 030V140 9999 SCT035 BKN062 08/05 Q1021 NOSIG
Loading
Personal Weather Stations






























Interactive Weather Map
Tropical Storm Tracking
New forecast layout! Learn more

10-Day Weather Forecast

Advertisements
Track Severe Weather on mobile